sensor_id;sensor_type;location;lat;lon;timestamp;P1;durP1;ratioP1;P2;durP2;ratioP2
59907;SDS011;61804;54.926;73.496;2023-01-31T00:00:44;12.85;;;6.50;;
59907;SDS011;61804;54.926;73.496;2023-01-31T00:03:21;16.85;;;7.25;;
59907;SDS011;61804;54.926;73.496;2023-01-31T00:06:07;20.75;;;9.98;;
59907;SDS011;61804;54.926;73.496;2023-01-31T00:08:46;13.80;;;8.20;;
59907;SDS011;61804;54.926;73.496;2023-01-31T00:11:15;19.80;;;10.80;;
59907;SDS011;61804;54.926;73.496;2023-01-31T00:13:43;20.50;;;12.45;;
59907;SDS011;61804;54.926;73.496;2023-01-31T00:16:11;13.18;;;8.55;;
59907;SDS011;61804;54.926;73.496;2023-01-31T00:18:38;25.38;;;12.43;;
59907;SDS011;61804;54.926;73.496;2023-01-31T00:21:07;21.17;;;12.52;;
59907;SDS011;61804;54.926;73.496;2023-01-31T00:23:35;19.48;;;10.57;;
59907;SDS011;61804;54.926;73.496;2023-01-31T00:26:11;31.13;;;16.05;;
59907;SDS011;61804;54.926;73.496;2023-01-31T00:28:40;22.02;;;13.13;;
59907;SDS011;61804;54.926;73.496;2023-01-31T00:31:08;18.17;;;10.50;;
59907;SDS011;61804;54.926;73.496;2023-01-31T00:33:43;16.10;;;9.52;;
59907;SDS011;61804;54.926;73.496;2023-01-31T00:36:18;20.60;;;9.70;;
59907;SDS011;61804;54.926;73.496;2023-01-31T00:38:49;14.90;;;10.65;;
59907;SDS011;61804;54.926;73.496;2023-01-31T00:41:18;21.38;;;13.50;;
59907;SDS011;61804;54.926;73.496;2023-01-31T00:43:47;25.10;;;13.52;;
59907;SDS011;61804;54.926;73.496;2023-01-31T00:46:15;170.48;;;87.82;;
59907;SDS011;61804;54.926;73.496;2023-01-31T00:48:48;68.72;;;35.05;;
59907;SDS011;61804;54.926;73.496;2023-01-31T00:51:16;65.53;;;32.47;;
59907;SDS011;61804;54.926;73.496;2023-01-31T00:53:44;28.50;;;13.70;;
59907;SDS011;61804;54.926;73.496;2023-01-31T00:56:15;21.90;;;13.55;;
59907;SDS011;61804;54.926;73.496;2023-01-31T00:58:49;12.90;;;7.18;;
59907;SDS011;61804;54.926;73.496;2023-01-31T01:01:21;19.55;;;15.05;;
59907;SDS011;61804;54.926;73.496;2023-01-31T01:03:51;198.15;;;95.20;;
59907;SDS011;61804;54.926;73.496;2023-01-31T01:06:19;142.93;;;63.50;;
59907;SDS011;61804;54.926;73.496;2023-01-31T01:08:47;39.85;;;20.67;;
59907;SDS011;61804;54.926;73.496;2023-01-31T01:11:17;35.20;;;20.85;;
59907;SDS011;61804;54.926;73.496;2023-01-31T01:13:49;29.60;;;16.02;;
59907;SDS011;61804;54.926;73.496;2023-01-31T01:16:33;35.42;;;20.58;;
59907;SDS011;61804;54.926;73.496;2023-01-31T01:19:11;63.63;;;33.10;;
59907;SDS011;61804;54.926;73.496;2023-01-31T01:21:49;52.58;;;27.35;;
59907;SDS011;61804;54.926;73.496;2023-01-31T01:24:28;87.75;;;38.70;;
59907;SDS011;61804;54.926;73.496;2023-01-31T01:27:05;72.95;;;34.58;;
59907;SDS011;61804;54.926;73.496;2023-01-31T01:29:38;60.50;;;23.42;;
59907;SDS011;61804;54.926;73.496;2023-01-31T01:32:06;18.55;;;12.70;;
59907;SDS011;61804;54.926;73.496;2023-01-31T01:34:33;20.77;;;10.90;;
59907;SDS011;61804;54.926;73.496;2023-01-31T01:37:03;20.65;;;12.93;;
59907;SDS011;61804;54.926;73.496;2023-01-31T01:39:37;15.73;;;11.40;;
59907;SDS011;61804;54.926;73.496;2023-01-31T01:42:04;35.00;;;11.40;;
59907;SDS011;61804;54.926;73.496;2023-01-31T01:50:49;20.38;;;11.93;;
59907;SDS011;61804;54.926;73.496;2023-01-31T01:53:17;33.03;;;20.90;;
59907;SDS011;61804;54.926;73.496;2023-01-31T01:58:17;21.95;;;13.98;;
59907;SDS011;61804;54.926;73.496;2023-01-31T02:00:50;21.02;;;16.02;;
59907;SDS011;61804;54.926;73.496;2023-01-31T02:03:18;26.30;;;15.63;;
59907;SDS011;61804;54.926;73.496;2023-01-31T02:05:56;20.42;;;9.93;;
59907;SDS011;61804;54.926;73.496;2023-01-31T02:08:26;24.83;;;10.85;;
59907;SDS011;61804;54.926;73.496;2023-01-31T02:11:00;29.33;;;14.68;;
59907;SDS011;61804;54.926;73.496;2023-01-31T02:13:29;35.40;;;22.60;;
59907;SDS011;61804;54.926;73.496;2023-01-31T02:15:58;38.13;;;21.88;;
59907;SDS011;61804;54.926;73.496;2023-01-31T02:18:26;29.50;;;14.18;;
59907;SDS011;61804;54.926;73.496;2023-01-31T02:21:06;25.75;;;17.35;;
59907;SDS011;61804;54.926;73.496;2023-01-31T02:37:12;17.65;;;10.27;;
59907;SDS011;61804;54.926;73.496;2023-01-31T02:42:22;14.77;;;8.43;;
59907;SDS011;61804;54.926;73.496;2023-01-31T02:47:38;22.98;;;11.48;;
59907;SDS011;61804;54.926;73.496;2023-01-31T02:50:59;24.70;;;11.93;;
59907;SDS011;61804;54.926;73.496;2023-01-31T02:55:51;29.10;;;15.45;;
59907;SDS011;61804;54.926;73.496;2023-01-31T02:58:45;24.75;;;11.65;;
59907;SDS011;61804;54.926;73.496;2023-01-31T03:01:36;18.77;;;8.88;;
59907;SDS011;61804;54.926;73.496;2023-01-31T03:04:08;12.77;;;8.38;;
59907;SDS011;61804;54.926;73.496;2023-01-31T03:06:40;20.10;;;14.43;;
59907;SDS011;61804;54.926;73.496;2023-01-31T03:09:28;25.73;;;19.08;;
59907;SDS011;61804;54.926;73.496;2023-01-31T03:17:44;22.73;;;14.13;;
59907;SDS011;61804;54.926;73.496;2023-01-31T03:20:21;23.45;;;15.73;;
59907;SDS011;61804;54.926;73.496;2023-01-31T03:22:59;12.88;;;11.55;;
59907;SDS011;61804;54.926;73.496;2023-01-31T03:25:30;13.93;;;9.27;;
59907;SDS011;61804;54.926;73.496;2023-01-31T03:28:03;28.05;;;14.07;;
59907;SDS011;61804;54.926;73.496;2023-01-31T03:30:58;36.05;;;21.67;;
59907;SDS011;61804;54.926;73.496;2023-01-31T03:33:39;37.70;;;23.77;;
59907;SDS011;61804;54.926;73.496;2023-01-31T03:36:30;37.50;;;22.02;;
59907;SDS011;61804;54.926;73.496;2023-01-31T03:47:18;38.30;;;22.90;;
59907;SDS011;61804;54.926;73.496;2023-01-31T03:49:58;62.65;;;31.02;;
59907;SDS011;61804;54.926;73.496;2023-01-31T03:52:29;33.50;;;22.65;;
59907;SDS011;61804;54.926;73.496;2023-01-31T03:55:00;60.38;;;32.45;;
59907;SDS011;61804;54.926;73.496;2023-01-31T03:57:30;45.00;;;28.17;;
59907;SDS011;61804;54.926;73.496;2023-01-31T04:00:05;40.20;;;24.20;;
59907;SDS011;61804;54.926;73.496;2023-01-31T04:02:41;62.00;;;27.25;;
59907;SDS011;61804;54.926;73.496;2023-01-31T04:05:12;44.30;;;24.75;;
59907;SDS011;61804;54.926;73.496;2023-01-31T04:07:49;40.35;;;25.00;;
59907;SDS011;61804;54.926;73.496;2023-01-31T04:10:23;41.63;;;22.88;;
59907;SDS011;61804;54.926;73.496;2023-01-31T04:12:52;43.65;;;21.65;;
59907;SDS011;61804;54.926;73.496;2023-01-31T04:15:19;31.77;;;18.05;;
59907;SDS011;61804;54.926;73.496;2023-01-31T04:17:48;27.13;;;19.50;;
59907;SDS011;61804;54.926;73.496;2023-01-31T04:20:21;36.20;;;22.35;;
59907;SDS011;61804;54.926;73.496;2023-01-31T04:22:58;78.05;;;46.88;;
59907;SDS011;61804;54.926;73.496;2023-01-31T04:25:26;106.50;;;64.90;;
59907;SDS011;61804;54.926;73.496;2023-01-31T04:27:55;109.88;;;55.95;;
59907;SDS011;61804;54.926;73.496;2023-01-31T04:30:33;101.90;;;53.70;;
59907;SDS011;61804;54.926;73.496;2023-01-31T04:33:01;47.13;;;27.63;;
59907;SDS011;61804;54.926;73.496;2023-01-31T04:35:28;49.38;;;32.22;;
59907;SDS011;61804;54.926;73.496;2023-01-31T04:37:56;45.85;;;23.55;;
59907;SDS011;61804;54.926;73.496;2023-01-31T04:40:24;53.30;;;29.33;;
59907;SDS011;61804;54.926;73.496;2023-01-31T04:42:56;34.22;;;21.45;;
59907;SDS011;61804;54.926;73.496;2023-01-31T04:45:24;32.03;;;17.45;;
59907;SDS011;61804;54.926;73.496;2023-01-31T04:47:53;38.90;;;25.17;;
59907;SDS011;61804;54.926;73.496;2023-01-31T04:50:21;43.97;;;26.10;;
59907;SDS011;61804;54.926;73.496;2023-01-31T04:52:48;26.45;;;13.07;;
59907;SDS011;61804;54.926;73.496;2023-01-31T04:55:26;27.42;;;14.98;;
59907;SDS011;61804;54.926;73.496;2023-01-31T04:57:58;36.83;;;20.08;;
59907;SDS011;61804;54.926;73.496;2023-01-31T05:00:26;29.45;;;17.40;;
59907;SDS011;61804;54.926;73.496;2023-01-31T05:02:54;29.35;;;14.23;;
59907;SDS011;61804;54.926;73.496;2023-01-31T05:05:21;17.33;;;11.85;;
59907;SDS011;61804;54.926;73.496;2023-01-31T05:07:49;19.05;;;13.30;;
59907;SDS011;61804;54.926;73.496;2023-01-31T05:10:27;30.20;;;13.52;;
59907;SDS011;61804;54.926;73.496;2023-01-31T05:13:03;26.52;;;12.23;;
59907;SDS011;61804;54.926;73.496;2023-01-31T05:15:41;21.65;;;12.25;;
59907;SDS011;61804;54.926;73.496;2023-01-31T05:18:13;15.23;;;10.75;;
59907;SDS011;61804;54.926;73.496;2023-01-31T05:20:41;25.50;;;16.92;;
59907;SDS011;61804;54.926;73.496;2023-01-31T05:23:20;15.77;;;10.13;;
59907;SDS011;61804;54.926;73.496;2023-01-31T05:25:58;20.20;;;15.45;;
59907;SDS011;61804;54.926;73.496;2023-01-31T05:28:25;21.33;;;14.57;;
59907;SDS011;61804;54.926;73.496;2023-01-31T05:30:59;17.00;;;13.70;;
59907;SDS011;61804;54.926;73.496;2023-01-31T05:33:40;24.42;;;18.20;;
59907;SDS011;61804;54.926;73.496;2023-01-31T05:36:07;24.75;;;18.73;;
59907;SDS011;61804;54.926;73.496;2023-01-31T05:38:35;31.80;;;22.33;;
59907;SDS011;61804;54.926;73.496;2023-01-31T05:41:02;22.40;;;14.63;;
59907;SDS011;61804;54.926;73.496;2023-01-31T05:43:30;32.92;;;19.45;;
59907;SDS011;61804;54.926;73.496;2023-01-31T05:46:04;27.58;;;16.50;;
59907;SDS011;61804;54.926;73.496;2023-01-31T05:48:41;17.73;;;14.07;;
59907;SDS011;61804;54.926;73.496;2023-01-31T05:51:18;31.52;;;20.58;;
59907;SDS011;61804;54.926;73.496;2023-01-31T05:53:45;28.48;;;20.10;;
59907;SDS011;61804;54.926;73.496;2023-01-31T05:56:14;21.48;;;14.32;;
59907;SDS011;61804;54.926;73.496;2023-01-31T05:58:47;20.00;;;12.65;;
59907;SDS011;61804;54.926;73.496;2023-01-31T06:01:19;33.28;;;19.60;;
59907;SDS011;61804;54.926;73.496;2023-01-31T06:03:47;105.35;;;60.72;;
59907;SDS011;61804;54.926;73.496;2023-01-31T06:06:19;24.85;;;17.27;;
59907;SDS011;61804;54.926;73.496;2023-01-31T06:08:49;24.27;;;14.75;;
59907;SDS011;61804;54.926;73.496;2023-01-31T06:11:16;48.45;;;18.80;;
59907;SDS011;61804;54.926;73.496;2023-01-31T06:13:49;129.68;;;61.78;;
59907;SDS011;61804;54.926;73.496;2023-01-31T06:16:24;138.90;;;70.30;;
59907;SDS011;61804;54.926;73.496;2023-01-31T06:18:52;71.55;;;39.90;;
59907;SDS011;61804;54.926;73.496;2023-01-31T06:21:22;31.30;;;16.27;;
59907;SDS011;61804;54.926;73.496;2023-01-31T06:23:55;46.70;;;28.17;;
59907;SDS011;61804;54.926;73.496;2023-01-31T06:26:28;24.42;;;14.52;;
59907;SDS011;61804;54.926;73.496;2023-01-31T06:28:55;24.83;;;14.50;;
59907;SDS011;61804;54.926;73.496;2023-01-31T06:31:23;23.92;;;16.85;;
59907;SDS011;61804;54.926;73.496;2023-01-31T06:33:50;18.10;;;12.77;;
59907;SDS011;61804;54.926;73.496;2023-01-31T06:36:18;13.02;;;10.88;;
59907;SDS011;61804;54.926;73.496;2023-01-31T06:38:50;17.60;;;11.88;;
59907;SDS011;61804;54.926;73.496;2023-01-31T06:41:18;17.33;;;12.43;;
59907;SDS011;61804;54.926;73.496;2023-01-31T06:43:50;20.15;;;13.10;;
59907;SDS011;61804;54.926;73.496;2023-01-31T06:46:22;18.33;;;13.05;;
59907;SDS011;61804;54.926;73.496;2023-01-31T06:48:49;20.80;;;13.75;;
59907;SDS011;61804;54.926;73.496;2023-01-31T06:51:27;18.80;;;12.88;;
59907;SDS011;61804;54.926;73.496;2023-01-31T06:54:04;16.15;;;10.50;;
59907;SDS011;61804;54.926;73.496;2023-01-31T06:56:36;34.55;;;21.40;;
59907;SDS011;61804;54.926;73.496;2023-01-31T06:59:04;23.88;;;13.50;;
59907;SDS011;61804;54.926;73.496;2023-01-31T07:01:41;27.23;;;16.23;;
59907;SDS011;61804;54.926;73.496;2023-01-31T07:04:09;23.77;;;12.88;;
59907;SDS011;61804;54.926;73.496;2023-01-31T07:06:37;29.95;;;18.30;;
59907;SDS011;61804;54.926;73.496;2023-01-31T07:09:09;18.58;;;11.45;;
59907;SDS011;61804;54.926;73.496;2023-01-31T07:11:37;20.10;;;15.05;;
59907;SDS011;61804;54.926;73.496;2023-01-31T07:14:04;23.20;;;13.73;;
59907;SDS011;61804;54.926;73.496;2023-01-31T07:16:32;22.58;;;13.60;;
59907;SDS011;61804;54.926;73.496;2023-01-31T07:18:59;20.25;;;12.15;;
59907;SDS011;61804;54.926;73.496;2023-01-31T07:21:32;30.52;;;14.35;;
59907;SDS011;61804;54.926;73.496;2023-01-31T07:24:06;24.98;;;16.05;;
59907;SDS011;61804;54.926;73.496;2023-01-31T07:26:39;20.15;;;12.57;;
59907;SDS011;61804;54.926;73.496;2023-01-31T07:29:07;19.08;;;12.75;;
59907;SDS011;61804;54.926;73.496;2023-01-31T07:31:41;19.80;;;13.50;;
59907;SDS011;61804;54.926;73.496;2023-01-31T07:34:08;13.07;;;9.95;;
59907;SDS011;61804;54.926;73.496;2023-01-31T07:36:36;19.67;;;12.73;;
59907;SDS011;61804;54.926;73.496;2023-01-31T07:39:03;18.20;;;12.43;;
59907;SDS011;61804;54.926;73.496;2023-01-31T07:41:36;19.58;;;12.50;;
59907;SDS011;61804;54.926;73.496;2023-01-31T07:44:18;14.55;;;11.82;;
59907;SDS011;61804;54.926;73.496;2023-01-31T07:46:46;21.67;;;12.93;;
59907;SDS011;61804;54.926;73.496;2023-01-31T07:49:27;17.95;;;10.52;;
59907;SDS011;61804;54.926;73.496;2023-01-31T07:51:55;19.42;;;14.85;;
59907;SDS011;61804;54.926;73.496;2023-01-31T07:54:22;22.13;;;10.73;;
59907;SDS011;61804;54.926;73.496;2023-01-31T07:56:50;14.07;;;11.05;;
59907;SDS011;61804;54.926;73.496;2023-01-31T07:59:20;26.15;;;12.45;;
59907;SDS011;61804;54.926;73.496;2023-01-31T08:01:47;38.05;;;25.33;;
59907;SDS011;61804;54.926;73.496;2023-01-31T08:04:34;26.35;;;15.57;;
59907;SDS011;61804;54.926;73.496;2023-01-31T08:07:02;76.97;;;45.05;;
59907;SDS011;61804;54.926;73.496;2023-01-31T08:09:32;39.75;;;27.73;;
59907;SDS011;61804;54.926;73.496;2023-01-31T08:12:00;38.08;;;25.77;;
59907;SDS011;61804;54.926;73.496;2023-01-31T08:14:27;18.67;;;12.27;;
59907;SDS011;61804;54.926;73.496;2023-01-31T08:16:55;42.22;;;27.63;;
59907;SDS011;61804;54.926;73.496;2023-01-31T08:19:23;92.07;;;52.97;;
59907;SDS011;61804;54.926;73.496;2023-01-31T08:21:54;91.13;;;48.60;;
59907;SDS011;61804;54.926;73.496;2023-01-31T08:24:21;59.38;;;31.83;;
59907;SDS011;61804;54.926;73.496;2023-01-31T08:26:49;32.90;;;18.58;;
59907;SDS011;61804;54.926;73.496;2023-01-31T08:29:16;26.50;;;14.88;;
59907;SDS011;61804;54.926;73.496;2023-01-31T08:31:44;24.10;;;14.10;;
59907;SDS011;61804;54.926;73.496;2023-01-31T08:34:11;25.20;;;15.32;;
59907;SDS011;61804;54.926;73.496;2023-01-31T08:36:40;18.50;;;15.93;;
59907;SDS011;61804;54.926;73.496;2023-01-31T08:39:13;19.50;;;12.30;;
59907;SDS011;61804;54.926;73.496;2023-01-31T08:41:45;12.55;;;9.07;;
59907;SDS011;61804;54.926;73.496;2023-01-31T08:44:13;24.83;;;9.63;;
59907;SDS011;61804;54.926;73.496;2023-01-31T08:46:40;21.90;;;9.65;;
59907;SDS011;61804;54.926;73.496;2023-01-31T08:49:08;17.10;;;9.43;;
59907;SDS011;61804;54.926;73.496;2023-01-31T08:51:37;21.00;;;11.45;;
59907;SDS011;61804;54.926;73.496;2023-01-31T08:54:14;15.25;;;9.75;;
59907;SDS011;61804;54.926;73.496;2023-01-31T08:56:42;12.45;;;10.30;;
59907;SDS011;61804;54.926;73.496;2023-01-31T08:59:12;17.70;;;9.40;;
59907;SDS011;61804;54.926;73.496;2023-01-31T09:01:40;22.15;;;11.18;;
59907;SDS011;61804;54.926;73.496;2023-01-31T09:04:09;19.98;;;9.75;;
59907;SDS011;61804;54.926;73.496;2023-01-31T09:06:57;23.23;;;12.32;;
59907;SDS011;61804;54.926;73.496;2023-01-31T09:09:24;17.13;;;10.27;;
59907;SDS011;61804;54.926;73.496;2023-01-31T09:11:57;14.45;;;8.38;;
59907;SDS011;61804;54.926;73.496;2023-01-31T09:14:24;12.20;;;8.18;;
59907;SDS011;61804;54.926;73.496;2023-01-31T09:16:51;17.05;;;8.93;;
59907;SDS011;61804;54.926;73.496;2023-01-31T09:19:19;12.23;;;7.85;;
59907;SDS011;61804;54.926;73.496;2023-01-31T09:21:48;11.68;;;9.98;;
59907;SDS011;61804;54.926;73.496;2023-01-31T09:24:15;15.25;;;9.05;;
59907;SDS011;61804;54.926;73.496;2023-01-31T09:26:43;17.33;;;11.18;;
59907;SDS011;61804;54.926;73.496;2023-01-31T09:29:10;13.45;;;9.75;;
59907;SDS011;61804;54.926;73.496;2023-01-31T09:31:37;12.18;;;10.02;;
59907;SDS011;61804;54.926;73.496;2023-01-31T09:34:05;18.50;;;10.43;;
59907;SDS011;61804;54.926;73.496;2023-01-31T09:36:34;21.75;;;11.30;;
59907;SDS011;61804;54.926;73.496;2023-01-31T09:39:09;12.40;;;7.93;;
59907;SDS011;61804;54.926;73.496;2023-01-31T09:41:50;17.10;;;11.10;;
59907;SDS011;61804;54.926;73.496;2023-01-31T09:44:22;19.60;;;13.45;;
59907;SDS011;61804;54.926;73.496;2023-01-31T09:46:53;19.13;;;10.95;;
59907;SDS011;61804;54.926;73.496;2023-01-31T09:49:24;15.65;;;9.07;;
59907;SDS011;61804;54.926;73.496;2023-01-31T09:51:55;17.95;;;11.73;;
59907;SDS011;61804;54.926;73.496;2023-01-31T09:54:30;15.25;;;8.40;;
59907;SDS011;61804;54.926;73.496;2023-01-31T09:59:29;14.48;;;10.88;;
59907;SDS011;61804;54.926;73.496;2023-01-31T10:01:59;16.00;;;9.55;;
59907;SDS011;61804;54.926;73.496;2023-01-31T10:12:31;17.17;;;12.48;;
59907;SDS011;61804;54.926;73.496;2023-01-31T10:15:01;22.30;;;15.18;;
59907;SDS011;61804;54.926;73.496;2023-01-31T10:17:45;21.80;;;12.45;;
59907;SDS011;61804;54.926;73.496;2023-01-31T10:23:28;14.75;;;11.23;;
59907;SDS011;61804;54.926;73.496;2023-01-31T10:26:05;18.00;;;12.15;;
59907;SDS011;61804;54.926;73.496;2023-01-31T10:34:00;16.38;;;13.40;;
59907;SDS011;61804;54.926;73.496;2023-01-31T10:36:36;14.00;;;9.90;;
59907;SDS011;61804;54.926;73.496;2023-01-31T10:39:22;23.13;;;16.67;;
59907;SDS011;61804;54.926;73.496;2023-01-31T10:47:01;11.80;;;8.98;;
59907;SDS011;61804;54.926;73.496;2023-01-31T10:49:29;29.42;;;18.17;;
59907;SDS011;61804;54.926;73.496;2023-01-31T10:54:43;12.85;;;10.43;;
59907;SDS011;61804;54.926;73.496;2023-01-31T10:57:15;22.77;;;14.32;;
59907;SDS011;61804;54.926;73.496;2023-01-31T10:59:48;15.63;;;11.40;;
59907;SDS011;61804;54.926;73.496;2023-01-31T11:02:20;22.80;;;14.45;;
59907;SDS011;61804;54.926;73.496;2023-01-31T11:04:58;21.50;;;13.57;;
59907;SDS011;61804;54.926;73.496;2023-01-31T11:07:29;20.27;;;12.32;;
59907;SDS011;61804;54.926;73.496;2023-01-31T11:09:57;26.80;;;13.88;;
59907;SDS011;61804;54.926;73.496;2023-01-31T11:12:39;17.90;;;11.20;;
59907;SDS011;61804;54.926;73.496;2023-01-31T11:15:13;44.38;;;25.20;;
59907;SDS011;61804;54.926;73.496;2023-01-31T11:17:41;92.10;;;51.42;;
59907;SDS011;61804;54.926;73.496;2023-01-31T11:21:09;58.92;;;38.80;;
59907;SDS011;61804;54.926;73.496;2023-01-31T11:25:32;98.85;;;69.20;;
59907;SDS011;61804;54.926;73.496;2023-01-31T11:28:02;78.20;;;38.17;;
59907;SDS011;61804;54.926;73.496;2023-01-31T11:30:37;66.95;;;38.83;;
59907;SDS011;61804;54.926;73.496;2023-01-31T11:33:06;89.15;;;52.05;;
59907;SDS011;61804;54.926;73.496;2023-01-31T11:35:34;62.10;;;37.10;;
59907;SDS011;61804;54.926;73.496;2023-01-31T11:40:37;53.53;;;27.40;;
59907;SDS011;61804;54.926;73.496;2023-01-31T11:43:05;36.13;;;23.13;;
59907;SDS011;61804;54.926;73.496;2023-01-31T11:45:43;35.25;;;18.63;;
59907;SDS011;61804;54.926;73.496;2023-01-31T11:50:40;20.77;;;13.93;;
59907;SDS011;61804;54.926;73.496;2023-01-31T11:53:14;18.27;;;11.63;;
59907;SDS011;61804;54.926;73.496;2023-01-31T11:55:55;18.33;;;14.23;;
59907;SDS011;61804;54.926;73.496;2023-01-31T11:58:24;37.95;;;19.10;;
59907;SDS011;61804;54.926;73.496;2023-01-31T12:00:58;48.08;;;22.77;;
59907;SDS011;61804;54.926;73.496;2023-01-31T12:03:31;40.45;;;21.27;;
59907;SDS011;61804;54.926;73.496;2023-01-31T12:06:00;58.53;;;31.13;;
59907;SDS011;61804;54.926;73.496;2023-01-31T12:10:55;53.88;;;34.60;;
59907;SDS011;61804;54.926;73.496;2023-01-31T12:13:23;52.88;;;28.40;;
59907;SDS011;61804;54.926;73.496;2023-01-31T12:15:58;58.08;;;30.70;;
59907;SDS011;61804;54.926;73.496;2023-01-31T12:26:13;35.17;;;17.90;;
59907;SDS011;61804;54.926;73.496;2023-01-31T12:34:09;38.55;;;23.42;;
59907;SDS011;61804;54.926;73.496;2023-01-31T12:42:10;41.00;;;26.55;;
59907;SDS011;61804;54.926;73.496;2023-01-31T12:55:19;26.48;;;18.33;;
59907;SDS011;61804;54.926;73.496;2023-01-31T12:58:08;38.83;;;22.75;;
59907;SDS011;61804;54.926;73.496;2023-01-31T13:00:50;25.90;;;15.90;;
59907;SDS011;61804;54.926;73.496;2023-01-31T13:03:33;21.42;;;12.98;;
59907;SDS011;61804;54.926;73.496;2023-01-31T13:06:17;21.00;;;12.07;;
59907;SDS011;61804;54.926;73.496;2023-01-31T13:08:53;15.65;;;13.52;;
59907;SDS011;61804;54.926;73.496;2023-01-31T13:11:36;24.95;;;10.27;;
59907;SDS011;61804;54.926;73.496;2023-01-31T13:14:16;12.93;;;8.93;;
59907;SDS011;61804;54.926;73.496;2023-01-31T13:16:57;24.00;;;15.82;;
59907;SDS011;61804;54.926;73.496;2023-01-31T13:19:31;33.50;;;19.63;;
59907;SDS011;61804;54.926;73.496;2023-01-31T13:22:17;29.08;;;13.32;;
59907;SDS011;61804;54.926;73.496;2023-01-31T13:24:48;24.75;;;11.48;;
59907;SDS011;61804;54.926;73.496;2023-01-31T13:27:20;31.58;;;16.35;;
59907;SDS011;61804;54.926;73.496;2023-01-31T13:32:55;25.15;;;14.57;;
59907;SDS011;61804;54.926;73.496;2023-01-31T13:37:59;29.58;;;19.30;;
59907;SDS011;61804;54.926;73.496;2023-01-31T13:40:30;30.80;;;19.23;;
59907;SDS011;61804;54.926;73.496;2023-01-31T13:43:01;63.58;;;36.38;;
59907;SDS011;61804;54.926;73.496;2023-01-31T13:45:37;21.60;;;16.95;;
59907;SDS011;61804;54.926;73.496;2023-01-31T13:48:32;43.25;;;23.20;;
59907;SDS011;61804;54.926;73.496;2023-01-31T13:51:12;42.47;;;24.45;;
59907;SDS011;61804;54.926;73.496;2023-01-31T13:53:55;159.05;;;78.13;;
59907;SDS011;61804;54.926;73.496;2023-01-31T13:56:25;108.97;;;56.13;;
59907;SDS011;61804;54.926;73.496;2023-01-31T13:58:59;78.57;;;43.85;;
59907;SDS011;61804;54.926;73.496;2023-01-31T14:01:29;122.20;;;58.30;;
59907;SDS011;61804;54.926;73.496;2023-01-31T14:06:53;66.60;;;33.05;;
59907;SDS011;61804;54.926;73.496;2023-01-31T14:09:34;75.65;;;42.28;;
59907;SDS011;61804;54.926;73.496;2023-01-31T14:24:54;29.73;;;17.25;;
59907;SDS011;61804;54.926;73.496;2023-01-31T14:27:25;28.85;;;20.58;;
59907;SDS011;61804;54.926;73.496;2023-01-31T14:45:48;19.95;;;13.65;;
59907;SDS011;61804;54.926;73.496;2023-01-31T14:53:54;33.50;;;16.95;;
59907;SDS011;61804;54.926;73.496;2023-01-31T15:01:50;45.00;;;16.17;;
59907;SDS011;61804;54.926;73.496;2023-01-31T15:04:25;48.50;;;23.90;;
59907;SDS011;61804;54.926;73.496;2023-01-31T15:06:54;40.30;;;21.08;;
59907;SDS011;61804;54.926;73.496;2023-01-31T15:11:54;16.75;;;9.00;;
59907;SDS011;61804;54.926;73.496;2023-01-31T15:14:34;15.20;;;8.88;;
59907;SDS011;61804;54.926;73.496;2023-01-31T15:17:11;20.45;;;16.95;;
59907;SDS011;61804;54.926;73.496;2023-01-31T15:19:44;29.88;;;16.98;;
59907;SDS011;61804;54.926;73.496;2023-01-31T15:22:12;13.40;;;9.48;;
59907;SDS011;61804;54.926;73.496;2023-01-31T15:24:45;28.08;;;16.73;;
59907;SDS011;61804;54.926;73.496;2023-01-31T15:27:17;22.88;;;15.02;;
59907;SDS011;61804;54.926;73.496;2023-01-31T15:32:48;21.60;;;12.93;;
59907;SDS011;61804;54.926;73.496;2023-01-31T15:35:28;23.30;;;12.80;;
59907;SDS011;61804;54.926;73.496;2023-01-31T15:38:40;31.70;;;17.02;;
59907;SDS011;61804;54.926;73.496;2023-01-31T15:41:04;48.60;;;26.10;;
59907;SDS011;61804;54.926;73.496;2023-01-31T15:43:45;35.63;;;24.88;;
59907;SDS011;61804;54.926;73.496;2023-01-31T15:46:18;34.38;;;18.23;;
59907;SDS011;61804;54.926;73.496;2023-01-31T15:48:48;44.10;;;23.48;;
59907;SDS011;61804;54.926;73.496;2023-01-31T15:51:26;55.83;;;30.67;;
59907;SDS011;61804;54.926;73.496;2023-01-31T15:54:04;44.65;;;28.55;;
59907;SDS011;61804;54.926;73.496;2023-01-31T15:56:33;62.50;;;35.80;;
59907;SDS011;61804;54.926;73.496;2023-01-31T15:59:11;46.35;;;32.15;;
59907;SDS011;61804;54.926;73.496;2023-01-31T16:01:45;55.22;;;29.70;;
59907;SDS011;61804;54.926;73.496;2023-01-31T16:04:18;47.72;;;26.55;;
59907;SDS011;61804;54.926;73.496;2023-01-31T16:06:45;33.80;;;20.48;;
59907;SDS011;61804;54.926;73.496;2023-01-31T16:09:25;28.05;;;19.23;;
59907;SDS011;61804;54.926;73.496;2023-01-31T16:11:53;25.33;;;13.65;;
59907;SDS011;61804;54.926;73.496;2023-01-31T16:14:22;36.42;;;17.77;;
59907;SDS011;61804;54.926;73.496;2023-01-31T16:16:51;26.05;;;16.27;;
59907;SDS011;61804;54.926;73.496;2023-01-31T16:19:28;24.35;;;16.33;;
59907;SDS011;61804;54.926;73.496;2023-01-31T16:22:00;28.98;;;12.32;;
59907;SDS011;61804;54.926;73.496;2023-01-31T16:24:28;15.93;;;9.85;;
59907;SDS011;61804;54.926;73.496;2023-01-31T16:27:16;29.20;;;14.05;;
59907;SDS011;61804;54.926;73.496;2023-01-31T16:29:46;18.13;;;11.90;;
59907;SDS011;61804;54.926;73.496;2023-01-31T16:32:27;37.35;;;19.30;;
59907;SDS011;61804;54.926;73.496;2023-01-31T16:35:07;57.70;;;25.05;;
59907;SDS011;61804;54.926;73.496;2023-01-31T16:37:41;47.55;;;24.95;;
59907;SDS011;61804;54.926;73.496;2023-01-31T16:42:47;21.35;;;15.95;;
59907;SDS011;61804;54.926;73.496;2023-01-31T16:45:28;49.15;;;26.45;;
59907;SDS011;61804;54.926;73.496;2023-01-31T16:48:13;35.83;;;18.15;;
59907;SDS011;61804;54.926;73.496;2023-01-31T16:50:47;25.10;;;15.45;;
59907;SDS011;61804;54.926;73.496;2023-01-31T16:53:34;34.50;;;19.10;;
59907;SDS011;61804;54.926;73.496;2023-01-31T16:58:55;29.92;;;19.83;;
59907;SDS011;61804;54.926;73.496;2023-01-31T17:01:33;52.17;;;26.77;;
59907;SDS011;61804;54.926;73.496;2023-01-31T17:06:32;24.65;;;17.17;;
59907;SDS011;61804;54.926;73.496;2023-01-31T17:09:01;52.17;;;33.08;;
59907;SDS011;61804;54.926;73.496;2023-01-31T17:11:30;80.43;;;45.25;;
59907;SDS011;61804;54.926;73.496;2023-01-31T17:14:02;96.50;;;45.42;;
59907;SDS011;61804;54.926;73.496;2023-01-31T17:16:34;100.22;;;37.70;;
59907;SDS011;61804;54.926;73.496;2023-01-31T17:19:13;73.82;;;39.15;;
59907;SDS011;61804;54.926;73.496;2023-01-31T17:21:51;51.22;;;27.20;;
59907;SDS011;61804;54.926;73.496;2023-01-31T17:24:28;55.20;;;21.88;;
59907;SDS011;61804;54.926;73.496;2023-01-31T17:27:01;16.48;;;10.27;;
59907;SDS011;61804;54.926;73.496;2023-01-31T17:29:29;22.17;;;11.52;;
59907;SDS011;61804;54.926;73.496;2023-01-31T17:31:56;23.70;;;11.80;;
59907;SDS011;61804;54.926;73.496;2023-01-31T17:34:34;23.85;;;12.32;;